createdAt,value
2023-02-12T00:00:15.207Z,7.9
2023-02-12T00:03:12.297Z,7.9
2023-02-12T00:06:14.799Z,7.9
2023-02-12T00:09:12.356Z,7.9
2023-02-12T00:12:12.226Z,7.9
2023-02-12T00:15:12.195Z,7.9
2023-02-12T00:18:12.267Z,7.9
2023-02-12T00:21:12.298Z,7.9
2023-02-12T00:24:12.248Z,7.9
2023-02-12T00:27:12.352Z,7.9
2023-02-12T00:30:12.217Z,7.9
2023-02-12T00:33:12.227Z,7.9
2023-02-12T00:36:12.545Z,7.7
2023-02-12T00:39:12.178Z,7.9
2023-02-12T00:42:12.267Z,7.9
2023-02-12T00:45:12.230Z,7.9
2023-02-12T00:48:12.235Z,7.9
2023-02-12T00:51:12.264Z,7.9
2023-02-12T00:54:12.156Z,7.9
2023-02-12T00:57:12.284Z,7.9
2023-02-12T01:00:12.440Z,7.9
2023-02-12T01:03:12.658Z,7.7
2023-02-12T01:06:12.299Z,7.7
2023-02-12T01:09:12.308Z,7.9
2023-02-12T01:12:12.229Z,7.9
2023-02-12T01:15:13.416Z,7.9
2023-02-12T01:18:12.339Z,7.9
2023-02-12T01:21:12.654Z,7.9
2023-02-12T01:24:45.044Z,7.9
2023-02-12T01:27:17.508Z,7.7
2023-02-12T01:30:14.992Z,7.7
2023-02-12T01:33:14.018Z,7.7
2023-02-12T01:36:13.873Z,7.7
2023-02-12T01:39:12.517Z,7.7
2023-02-12T01:42:13.098Z,7.7
2023-02-12T01:45:12.316Z,7.7
2023-02-12T01:48:12.288Z,7.7
2023-02-12T01:51:12.246Z,7.7
2023-02-12T01:54:12.416Z,7.7
2023-02-12T01:57:12.508Z,7.7
2023-02-12T02:00:13.145Z,7.7
2023-02-12T02:03:12.876Z,7.7
2023-02-12T02:06:12.317Z,7.7
2023-02-12T02:09:12.784Z,7.7
2023-02-12T02:12:12.476Z,7.7
2023-02-12T02:15:12.576Z,7.7
2023-02-12T02:18:12.448Z,7.7
2023-02-12T02:21:12.284Z,7.7
2023-02-12T02:24:12.378Z,7.7
2023-02-12T02:27:12.407Z,7.7
2023-02-12T02:30:12.756Z,7.7
2023-02-12T02:33:12.263Z,7.7
2023-02-12T02:36:12.509Z,7.7
2023-02-12T02:39:12.458Z,7.6
2023-02-12T02:42:12.337Z,7.7
2023-02-12T02:45:12.591Z,7.6
2023-02-12T02:48:12.685Z,7.6
2023-02-12T02:51:12.232Z,7.7
2023-02-12T02:54:12.295Z,7.6
2023-02-12T02:57:12.273Z,7.7
2023-02-12T03:00:12.402Z,7.6
2023-02-12T03:03:12.653Z,7.6
2023-02-12T03:06:12.251Z,7.6
2023-02-12T03:09:12.669Z,7.6
2023-02-12T03:12:12.317Z,7.6
2023-02-12T03:15:12.303Z,7.6
2023-02-12T03:18:12.409Z,7.6
2023-02-12T03:21:12.663Z,7.6
2023-02-12T03:24:12.497Z,7.6
2023-02-12T03:27:12.433Z,7.6
2023-02-12T03:30:12.297Z,7.6
2023-02-12T03:33:12.328Z,7.6
2023-02-12T03:36:12.314Z,7.6
2023-02-12T03:39:12.429Z,7.5
2023-02-12T03:42:12.361Z,7.5
2023-02-12T03:45:12.384Z,7.5
2023-02-12T03:48:12.229Z,7.5
2023-02-12T03:51:12.410Z,7.5
2023-02-12T03:54:12.308Z,7.5
2023-02-12T03:57:12.349Z,7.5
2023-02-12T04:00:12.419Z,7.5
2023-02-12T04:03:12.257Z,7.5
2023-02-12T04:06:12.464Z,7.5
2023-02-12T04:09:12.860Z,7.5
2023-02-12T04:12:12.353Z,7.5
2023-02-12T04:15:13.280Z,7.5
2023-02-12T04:18:13.016Z,7.4
2023-02-12T04:21:12.410Z,7.5
2023-02-12T04:24:12.253Z,7.4
2023-02-12T04:27:12.338Z,7.5
2023-02-12T04:30:12.403Z,7.4
2023-02-12T04:33:12.470Z,7.4
2023-02-12T04:36:12.231Z,7.4
2023-02-12T04:39:12.448Z,7.4
2023-02-12T04:42:12.433Z,7.4
2023-02-12T04:45:12.660Z,7.4
2023-02-12T04:48:12.404Z,7.4
2023-02-12T04:51:12.451Z,7.4
2023-02-12T04:54:15.494Z,7.4
2023-02-12T04:57:13.110Z,7.4
2023-02-12T05:00:17.275Z,7.4
2023-02-12T05:03:14.119Z,7.4
2023-02-12T05:06:17.158Z,7.4
2023-02-12T05:09:18.271Z,7.4
2023-02-12T05:12:13.272Z,7.4
2023-02-12T05:15:14.450Z,7.4
2023-02-12T05:18:12.268Z,7.4
2023-02-12T05:21:12.434Z,7.4
2023-02-12T05:24:12.284Z,7.4
2023-02-12T05:27:12.218Z,7.4
2023-02-12T05:30:12.288Z,7.4
2023-02-12T05:33:12.231Z,7.4
2023-02-12T05:36:12.230Z,7.4
2023-02-12T05:39:12.213Z,7.4
2023-02-12T05:42:12.312Z,7.4
2023-02-12T05:45:12.265Z,7.4
2023-02-12T05:48:12.211Z,7.4
2023-02-12T05:51:12.247Z,7.4
2023-02-12T05:54:12.317Z,7.4
2023-02-12T05:57:12.276Z,7.4
2023-02-12T06:00:12.376Z,7.4
2023-02-12T06:03:12.163Z,7.4
2023-02-12T06:06:12.326Z,7.4
2023-02-12T06:09:12.226Z,7.4
2023-02-12T06:12:12.271Z,7.4
2023-02-12T06:15:12.317Z,7.4
2023-02-12T06:18:12.256Z,7.4
2023-02-12T06:21:12.223Z,7.4
2023-02-12T06:24:12.229Z,7.4
2023-02-12T06:27:12.323Z,7.4
2023-02-12T06:30:12.178Z,7.4
2023-02-12T06:33:12.186Z,7.4
2023-02-12T06:36:12.305Z,7.4
2023-02-12T06:39:13.167Z,7.4
2023-02-12T06:42:12.317Z,7.4
2023-02-12T06:45:12.322Z,7.5
2023-02-12T06:48:12.375Z,7.4
2023-02-12T06:51:12.389Z,7.4
2023-02-12T06:54:12.310Z,7.5
2023-02-12T06:57:12.408Z,7.5
2023-02-12T07:00:12.487Z,7.5
2023-02-12T07:03:12.374Z,7.5
2023-02-12T07:06:12.295Z,7.6
2023-02-12T07:09:12.358Z,7.6
2023-02-12T07:12:12.395Z,7.7
2023-02-12T07:15:12.308Z,7.7
2023-02-12T07:18:12.332Z,7.9
2023-02-12T07:21:12.205Z,8
2023-02-12T07:24:12.442Z,8.1
2023-02-12T07:27:12.362Z,8.3
2023-02-12T07:30:12.449Z,8.3
2023-02-12T07:33:12.173Z,8.3
2023-02-12T07:36:12.324Z,8.3
2023-02-12T07:39:12.341Z,8.3
2023-02-12T07:42:12.391Z,8.3
2023-02-12T07:45:12.433Z,8.3
2023-02-12T07:48:12.476Z,8.3
2023-02-12T07:51:12.393Z,8.3
2023-02-12T07:54:12.374Z,8.3
2023-02-12T07:57:12.514Z,8.4
2023-02-12T08:00:12.903Z,8.6
2023-02-12T08:03:12.492Z,8.9
2023-02-12T08:06:12.444Z,9.3
2023-02-12T08:09:12.454Z,9.5
2023-02-12T08:12:12.580Z,9.8
2023-02-12T08:15:12.317Z,9.9
2023-02-12T08:18:12.349Z,9.8
2023-02-12T08:21:12.416Z,9.5
2023-02-12T08:24:12.316Z,9.5
2023-02-12T08:27:12.352Z,9.8
2023-02-12T08:30:14.488Z,9.9
2023-02-12T08:33:12.276Z,9.8
2023-02-12T08:36:13.288Z,9.8
2023-02-12T08:39:12.416Z,9.8
2023-02-12T08:42:12.416Z,9.6
2023-02-12T08:45:12.392Z,9.5
2023-02-12T08:48:12.428Z,9.6
2023-02-12T08:51:12.424Z,9.8
2023-02-12T08:54:12.537Z,9.9
2023-02-12T08:57:12.451Z,10
2023-02-12T09:00:12.473Z,10.1
2023-02-12T09:03:12.419Z,10.3
2023-02-12T09:06:12.513Z,10.3
2023-02-12T09:09:12.328Z,10.4
2023-02-12T09:12:12.412Z,10.8
2023-02-12T09:15:12.476Z,10.9
2023-02-12T09:18:12.373Z,10.9
2023-02-12T09:21:12.352Z,11.1
2023-02-12T09:24:12.351Z,11
2023-02-12T09:27:12.231Z,10.9
2023-02-12T09:30:12.612Z,10.6
2023-02-12T09:33:12.430Z,10.4
2023-02-12T09:36:12.378Z,10.5
2023-02-12T09:39:12.467Z,10.9
2023-02-12T09:42:12.360Z,10.8
2023-02-12T09:45:12.375Z,11
2023-02-12T09:48:12.323Z,11.3
2023-02-12T09:51:12.318Z,11.4
2023-02-12T09:54:12.482Z,11.4
2023-02-12T09:57:12.303Z,11.5
2023-02-12T10:00:12.600Z,11.5
2023-02-12T10:03:16.849Z,11.6
2023-02-12T10:06:12.324Z,11.5
2023-02-12T10:09:12.620Z,11.5
2023-02-12T10:12:12.296Z,11.4
2023-02-12T10:15:12.450Z,11.4
2023-02-12T10:18:12.309Z,11.5
2023-02-12T10:21:12.380Z,11.6
2023-02-12T10:24:12.472Z,11.6
2023-02-12T10:27:12.384Z,11.8
2023-02-12T10:30:12.487Z,11.9
2023-02-12T10:33:12.263Z,11.9
2023-02-12T10:36:12.425Z,11.9
2023-02-12T10:39:12.368Z,12
2023-02-12T10:42:12.377Z,12
2023-02-12T10:45:12.308Z,11.9
2023-02-12T10:48:12.415Z,11.6
2023-02-12T10:51:12.388Z,11.5
2023-02-12T10:54:14.237Z,11.4
2023-02-12T10:57:12.259Z,11.4
2023-02-12T11:00:12.518Z,11.5
2023-02-12T11:03:12.391Z,11.5
2023-02-12T11:06:12.419Z,11.6
2023-02-12T11:09:12.466Z,11.5
2023-02-12T11:12:12.403Z,11.6
2023-02-12T11:15:12.544Z,12.1
2023-02-12T11:18:15.633Z,12.8
2023-02-12T11:21:12.361Z,13
2023-02-12T11:24:13.940Z,13.3
2023-02-12T11:27:12.359Z,13.4
2023-02-12T11:30:12.337Z,13.4
2023-02-12T11:33:12.349Z,13.4
2023-02-12T11:39:12.361Z,13.1
2023-02-12T11:42:12.447Z,13.1
2023-02-12T11:45:12.209Z,13.1
2023-02-12T11:48:12.482Z,13.1
2023-02-12T11:51:12.211Z,13
2023-02-12T11:54:12.250Z,13
2023-02-12T11:57:12.293Z,12.8
2023-02-12T12:00:12.542Z,12.8
2023-02-12T12:03:12.480Z,12.6
2023-02-12T12:06:12.165Z,12.8
2023-02-12T12:09:12.128Z,12.9
2023-02-12T12:12:12.154Z,12.9
2023-02-12T12:15:12.302Z,12.9
2023-02-12T12:18:12.187Z,12.6
2023-02-12T12:21:12.378Z,12.5
2023-02-12T12:24:12.236Z,12.4
2023-02-12T12:27:12.227Z,12.5
2023-02-12T12:30:14.793Z,12.6
2023-02-12T12:33:12.224Z,12.8
2023-02-12T12:36:12.056Z,12.9
2023-02-12T12:39:12.194Z,13.1
2023-02-12T12:42:12.329Z,13.3
2023-02-12T12:45:12.299Z,13.4
2023-02-12T12:48:12.158Z,13.4
2023-02-12T12:51:12.479Z,13.3
2023-02-12T12:54:12.337Z,13.4
2023-02-12T12:57:12.371Z,13.5
2023-02-12T13:00:12.419Z,14
2023-02-12T13:03:12.292Z,14.5
2023-02-12T13:06:12.242Z,14.7
2023-02-12T13:09:12.291Z,15.3
2023-02-12T13:12:12.240Z,15.8
2023-02-12T13:15:12.474Z,16.1
2023-02-12T13:18:12.191Z,16.6
2023-02-12T13:21:12.229Z,17.2
2023-02-12T13:24:12.253Z,17.4
2023-02-12T13:27:12.348Z,17.4
2023-02-12T13:30:12.454Z,17.2
2023-02-12T13:33:12.329Z,17.4
2023-02-12T13:36:12.098Z,17.6
2023-02-12T13:39:12.253Z,17.5
2023-02-12T13:42:12.364Z,17.4
2023-02-12T13:45:12.307Z,17.2
2023-02-12T13:48:12.441Z,17
2023-02-12T13:51:28.031Z,16.9
2023-02-12T13:54:12.298Z,16.8
2023-02-12T13:57:12.346Z,16.8
2023-02-12T14:00:12.495Z,16.6
2023-02-12T14:03:12.187Z,16.4
2023-02-12T14:06:12.339Z,16.1
2023-02-12T14:09:12.259Z,15.8
2023-02-12T14:12:12.255Z,15.5
2023-02-12T14:15:12.468Z,15.1
2023-02-12T14:18:12.232Z,14.5
2023-02-12T14:21:12.178Z,14.1
2023-02-12T14:24:12.391Z,13.8
2023-02-12T14:27:12.210Z,13.3
2023-02-12T14:30:12.328Z,12.9
2023-02-12T14:33:12.595Z,12.5
2023-02-12T14:36:12.169Z,12.2
2023-02-12T14:39:12.240Z,12
2023-02-12T14:42:12.219Z,11.8
2023-02-12T14:45:12.305Z,11.6
2023-02-12T14:48:12.179Z,11.5
2023-02-12T14:51:12.399Z,11.4
2023-02-12T14:54:12.255Z,11.4
2023-02-12T14:57:12.134Z,11.3
2023-02-12T15:00:12.495Z,11.3
2023-02-12T15:03:12.226Z,11.1
2023-02-12T15:06:12.255Z,11.1
2023-02-12T15:09:12.410Z,11.1
2023-02-12T15:12:12.176Z,11
2023-02-12T15:15:12.261Z,11.1
2023-02-12T15:18:12.224Z,11.3
2023-02-12T15:21:12.393Z,11.3
2023-02-12T15:24:12.236Z,11.3
2023-02-12T15:27:12.534Z,11.3
2023-02-12T15:30:28.170Z,11.1
2023-02-12T15:33:14.271Z,11.1
2023-02-12T15:36:12.156Z,11.1
2023-02-12T15:39:12.648Z,11.1
2023-02-12T15:42:12.296Z,11.1
2023-02-12T15:45:12.810Z,11.1
2023-02-12T15:48:12.211Z,11
2023-02-12T15:51:12.256Z,10.9
2023-02-12T15:54:12.275Z,10.9
2023-02-12T15:57:12.208Z,10.9
2023-02-12T16:00:12.624Z,10.8
2023-02-12T16:03:12.320Z,10.6
2023-02-12T16:06:12.230Z,10.5
2023-02-12T16:09:12.186Z,10.4
2023-02-12T16:12:12.586Z,10.3
2023-02-12T16:15:12.361Z,10.1
2023-02-12T16:18:12.144Z,10
2023-02-12T16:21:12.502Z,9.8
2023-02-12T16:24:12.488Z,9.8
2023-02-12T16:27:12.182Z,9.6
2023-02-12T16:30:12.151Z,9.5
2023-02-12T16:33:12.078Z,9.4
2023-02-12T16:36:12.081Z,9.4
2023-02-12T16:39:12.216Z,9.3
2023-02-12T16:42:12.065Z,9.3
2023-02-12T16:45:12.182Z,9.3
2023-02-12T16:48:12.065Z,9.1
2023-02-12T16:51:12.261Z,9.1
2023-02-12T16:54:12.097Z,9.1
2023-02-12T16:57:12.169Z,9.1
2023-02-12T17:00:12.126Z,9.1
2023-02-12T17:03:12.569Z,9.1
2023-02-12T17:06:12.115Z,9.1
2023-02-12T17:09:12.125Z,9
2023-02-12T17:12:12.030Z,9
2023-02-12T17:15:12.058Z,9
2023-02-12T17:18:12.031Z,9
2023-02-12T17:21:12.119Z,9
2023-02-12T17:24:12.087Z,9
2023-02-12T17:27:12.086Z,8.9
2023-02-12T17:30:12.099Z,8.9
2023-02-12T17:33:12.259Z,8.9
2023-02-12T17:36:12.097Z,8.8
2023-02-12T17:39:12.155Z,8.8
2023-02-12T17:42:12.077Z,8.8
2023-02-12T17:45:12.059Z,8.6
2023-02-12T17:48:11.981Z,8.6
2023-02-12T17:51:12.183Z,8.6
2023-02-12T17:54:12.107Z,8.5
2023-02-12T17:57:14.572Z,8.5
2023-02-12T18:00:12.169Z,8.5
2023-02-12T18:03:12.248Z,8.5
2023-02-12T18:06:12.025Z,8.5
2023-02-12T18:09:12.091Z,8.5
2023-02-12T18:12:12.000Z,8.5
2023-02-12T18:15:12.354Z,8.4
2023-02-12T18:18:12.052Z,8.4
2023-02-12T18:21:12.068Z,8.3
2023-02-12T18:24:12.146Z,8.3
2023-02-12T18:27:12.175Z,8.3
2023-02-12T18:30:12.314Z,8.1
2023-02-12T18:33:12.146Z,8.1
2023-02-12T18:36:12.149Z,8
2023-02-12T18:39:12.142Z,8
2023-02-12T18:42:12.094Z,8
2023-02-12T18:45:12.179Z,8
2023-02-12T18:48:12.047Z,7.9
2023-02-12T18:51:12.168Z,7.9
2023-02-12T18:54:14.251Z,7.9
2023-02-12T18:57:12.221Z,7.9
2023-02-12T19:00:12.236Z,7.9
2023-02-12T19:03:12.113Z,7.9
2023-02-12T19:06:12.061Z,7.7
2023-02-12T19:09:12.128Z,7.7
2023-02-12T19:12:12.094Z,7.7
2023-02-12T19:15:12.090Z,7.7
2023-02-12T19:18:12.028Z,7.7
2023-02-12T19:21:12.135Z,7.6
2023-02-12T19:24:12.014Z,7.7
2023-02-12T19:27:12.246Z,7.6
2023-02-12T19:30:12.166Z,7.6
2023-02-12T19:33:11.996Z,7.6
2023-02-12T19:36:11.981Z,7.6
2023-02-12T19:39:12.155Z,7.6
2023-02-12T19:42:12.165Z,7.6
2023-02-12T19:45:12.096Z,7.7
2023-02-12T19:48:12.047Z,7.7
2023-02-12T19:51:12.173Z,7.7
2023-02-12T19:54:11.957Z,7.7
2023-02-12T19:57:13.600Z,7.7
2023-02-12T20:00:12.022Z,7.7
2023-02-12T20:03:12.403Z,7.7
2023-02-12T20:06:12.072Z,7.7
2023-02-12T20:09:11.958Z,7.7
2023-02-12T20:12:12.057Z,7.7
2023-02-12T20:15:12.075Z,7.7
2023-02-12T20:18:12.048Z,7.7
2023-02-12T20:21:11.967Z,7.7
2023-02-12T20:24:12.077Z,7.7
2023-02-12T20:27:12.103Z,7.7
2023-02-12T20:30:12.206Z,7.7
2023-02-12T20:33:12.019Z,7.7
2023-02-12T20:36:12.136Z,7.7
2023-02-12T20:39:12.136Z,7.7
2023-02-12T20:42:12.009Z,7.7
2023-02-12T20:45:12.085Z,7.7
2023-02-12T20:48:12.016Z,7.7
2023-02-12T20:51:12.125Z,7.7
2023-02-12T20:54:12.044Z,7.7
2023-02-12T20:57:12.124Z,7.7
2023-02-12T21:00:12.240Z,7.7
2023-02-12T21:03:12.235Z,7.7
2023-02-12T21:06:12.105Z,7.7
2023-02-12T21:09:12.251Z,7.7
2023-02-12T21:12:12.227Z,7.6
2023-02-12T21:15:11.991Z,7.6
2023-02-12T21:18:12.008Z,7.6
2023-02-12T21:21:12.056Z,7.6
2023-02-12T21:24:12.119Z,7.6
2023-02-12T21:27:12.728Z,7.6
2023-02-12T21:30:12.085Z,7.6
2023-02-12T21:33:12.023Z,7.6
2023-02-12T21:36:12.024Z,7.6
2023-02-12T21:39:12.036Z,7.6
2023-02-12T21:42:12.224Z,7.7
2023-02-12T21:45:12.298Z,7.7
2023-02-12T21:48:12.032Z,7.6
2023-02-12T21:51:12.121Z,7.7
2023-02-12T21:54:12.078Z,7.7
2023-02-12T21:57:12.009Z,7.7
2023-02-12T22:00:12.165Z,7.7
2023-02-12T22:03:12.095Z,7.7
2023-02-12T22:06:12.091Z,7.7
2023-02-12T22:09:12.101Z,7.6
2023-02-12T22:12:12.044Z,7.6
2023-02-12T22:15:12.079Z,7.6
2023-02-12T22:18:12.016Z,7.6
2023-02-12T22:21:15.851Z,7.6
2023-02-12T22:24:11.974Z,7.6
2023-02-12T22:27:12.077Z,7.6
2023-02-12T22:30:12.110Z,7.6
2023-02-12T22:33:12.030Z,7.7
2023-02-12T22:36:14.120Z,7.6
2023-02-12T22:39:12.024Z,7.6
2023-02-12T22:42:12.018Z,7.7
2023-02-12T22:45:12.008Z,7.6
2023-02-12T22:48:12.083Z,7.6
2023-02-12T22:51:12.071Z,7.6
2023-02-12T22:54:12.000Z,7.7
2023-02-12T22:57:12.010Z,7.6
2023-02-12T23:00:13.261Z,7.6
2023-02-12T23:03:12.240Z,7.6
2023-02-12T23:06:11.909Z,7.6
2023-02-12T23:09:12.093Z,7.5
2023-02-12T23:12:11.952Z,7.5
2023-02-12T23:15:12.031Z,7.5
2023-02-12T23:18:12.066Z,7.5
2023-02-12T23:21:12.614Z,7.5
2023-02-12T23:24:11.984Z,7.5
2023-02-12T23:27:11.982Z,7.5
2023-02-12T23:30:12.116Z,7.5
2023-02-12T23:33:12.003Z,7.5
2023-02-12T23:36:12.075Z,7.5
2023-02-12T23:39:12.010Z,7.4
2023-02-12T23:42:12.085Z,7.4
2023-02-12T23:45:12.074Z,7.4
2023-02-12T23:48:12.028Z,7.4
2023-02-12T23:51:12.083Z,7.4
2023-02-12T23:54:12.102Z,7.4
2023-02-12T23:57:11.996Z,7.4
